Time;durP1;ratioP1;P1;durP2;ratioP2;P2;SDS_P1;SDS_P2;PMS_P1;PMS_P2;Temp;Humidity;BMP_temperature;BMP_pressure;BME280_temperature;BME280_humidity;BME280_pressure;Samples;Min_cycle;Max_cycle;Signal;HPM_P1;HPM_P2
2023/03/14 00:01:14;;;;;;;5.68;4.80;;;;;;;;;;4987886;28;20068;-77
2023/03/14 00:03:42;;;;;;;6.75;4.90;;;;;;;;;;4989462;28;20104;-77
2023/03/14 00:06:10;;;;;;;6.80;4.43;;;;;;;;;;4995402;28;20054;-77
2023/03/14 00:08:38;;;;;;;7.60;4.93;;;;;;;;;;4987122;28;20125;-78
2023/03/14 00:11:06;;;;;;;5.78;4.57;;;;;;;;;;4987398;28;20170;-77
2023/03/14 00:13:33;;;;;;;7.57;4.82;;;;;;;;;;4991386;28;20069;-77
2023/03/14 00:16:04;;;;;;;6.55;4.25;;;;;;;;;;4991706;28;20109;-77
2023/03/14 00:18:32;;;;;;;7.57;5.17;;;;;;;;;;4986756;28;20042;-77
2023/03/14 00:21:00;;;;;;;6.10;4.75;;;;;;;;;;4987721;28;20045;-77
2023/03/14 00:23:28;;;;;;;6.07;4.57;;;;;;;;;;4985487;28;20065;-77
2023/03/14 00:26:02;;;;;;;6.80;4.20;;;;;;;;;;4987134;28;20050;-78
2023/03/14 00:28:30;;;;;;;5.88;4.07;;;;;;;;;;4986112;28;20106;-78
2023/03/14 00:30:58;;;;;;;4.50;3.60;;;;;;;;;;4985168;28;20492;-77
2023/03/14 00:33:25;;;;;;;6.95;3.97;;;;;;;;;;4967682;28;20056;-76
2023/03/14 00:35:56;;;;;;;5.78;4.30;;;;;;;;;;4986369;28;20050;-77
2023/03/14 00:38:24;;;;;;;6.00;4.20;;;;;;;;;;4988362;28;20049;-77
2023/03/14 00:40:52;;;;;;;7.10;4.20;;;;;;;;;;4970527;28;20491;-77
2023/03/14 00:43:24;;;;;;;5.63;4.53;;;;;;;;;;4987941;28;20064;-77
2023/03/14 00:45:51;;;;;;;5.78;3.88;;;;;;;;;;4970418;28;20463;-77
2023/03/14 00:48:19;;;;;;;4.10;3.40;;;;;;;;;;4987889;28;20050;-76
2023/03/14 00:50:47;;;;;;;6.68;3.72;;;;;;;;;;4987630;28;20077;-78
2023/03/14 00:53:15;;;;;;;4.68;3.80;;;;;;;;;;4983724;28;20280;-77
2023/03/14 00:55:43;;;;;;;7.05;3.55;;;;;;;;;;4987619;28;20045;-78
2023/03/14 00:58:14;;;;;;;3.95;3.30;;;;;;;;;;4968078;28;20041;-76
2023/03/14 01:00:42;;;;;;;3.67;3.38;;;;;;;;;;4987977;28;20480;-77
2023/03/14 01:03:11;;;;;;;6.40;3.90;;;;;;;;;;4969214;28;20054;-78
2023/03/14 01:05:38;;;;;;;5.10;3.33;;;;;;;;;;4970023;28;20057;-77
2023/03/14 01:08:06;;;;;;;5.57;3.42;;;;;;;;;;4986927;28;20125;-78
2023/03/14 01:10:35;;;;;;;4.20;3.22;;;;;;;;;;4969344;28;20046;-78
2023/03/14 01:13:02;;;;;;;3.33;2.78;;;;;;;;;;4965764;28;20166;-78
2023/03/14 01:15:29;;;;;;;3.70;3.40;;;;;;;;;;4969558;28;20097;-77
2023/03/14 01:17:57;;;;;;;8.38;3.70;;;;;;;;;;4969777;28;20070;-76
2023/03/14 01:20:24;;;;;;;4.13;3.40;;;;;;;;;;4987226;28;20050;-77
2023/03/14 01:22:53;;;;;;;3.75;3.42;;;;;;;;;;4969313;28;20043;-76
2023/03/14 01:25:21;;;;;;;6.20;3.53;;;;;;;;;;4987152;28;20060;-78
2023/03/14 01:27:48;;;;;;;4.50;3.50;;;;;;;;;;4968785;28;20128;-77
2023/03/14 01:30:16;;;;;;;5.43;3.75;;;;;;;;;;4972681;28;20046;-78
2023/03/14 01:32:44;;;;;;;10.15;6.15;;;;;;;;;;4966582;28;20129;-77
2023/03/14 01:35:11;;;;;;;4.10;3.70;;;;;;;;;;4966962;28;20050;-78
2023/03/14 01:37:39;;;;;;;5.55;3.95;;;;;;;;;;4972114;28;20131;-77
2023/03/14 01:40:13;;;;;;;5.82;3.72;;;;;;;;;;4969479;28;20097;-77
2023/03/14 01:42:45;;;;;;;5.97;3.88;;;;;;;;;;4967115;28;20061;-76
2023/03/14 01:45:38;;;;;;;4.38;3.58;;;;;;;;;;4985361;28;20046;-76
2023/03/14 01:48:05;;;;;;;7.72;4.10;;;;;;;;;;4967934;28;20265;-76
2023/03/14 01:50:33;;;;;;;4.25;3.42;;;;;;;;;;4966930;28;20607;-77
2023/03/14 01:53:00;;;;;;;5.22;3.40;;;;;;;;;;4985369;28;20500;-76
2023/03/14 01:55:28;;;;;;;4.97;3.63;;;;;;;;;;4967078;28;20501;-77
2023/03/14 01:58:00;;;;;;;4.03;3.60;;;;;;;;;;4985525;28;20502;-78
2023/03/14 02:00:27;;;;;;;4.97;3.60;;;;;;;;;;4970392;28;20046;-78
2023/03/14 02:03:10;;;;;;;3.70;3.33;;;;;;;;;;4969165;28;20105;-78
2023/03/14 02:05:39;;;;;;;4.38;3.97;;;;;;;;;;4967335;28;20519;-77
2023/03/14 02:08:21;;;;;;;3.90;3.53;;;;;;;;;;4969432;28;20137;-77
2023/03/14 02:10:51;;;;;;;5.28;3.97;;;;;;;;;;4968145;28;20046;-77
2023/03/14 02:13:25;;;;;;;5.80;4.00;;;;;;;;;;4979453;28;20145;-76
2023/03/14 02:15:55;;;;;;;4.78;3.47;;;;;;;;;;4984360;28;20138;-77
2023/03/14 02:18:48;;;;;;;4.00;3.60;;;;;;;;;;4963572;28;20049;-77
2023/03/14 02:21:57;;;;;;;4.20;3.60;;;;;;;;;;4982771;28;20199;-76
2023/03/14 02:24:38;;;;;;;4.10;3.65;;;;;;;;;;4966067;28;20720;-77
2023/03/14 02:27:11;;;;;;;5.30;4.15;;;;;;;;;;4967166;28;20043;-77
2023/03/14 02:29:54;;;;;;;3.95;3.47;;;;;;;;;;4967813;28;20042;-77
2023/03/14 02:32:23;;;;;;;6.75;4.10;;;;;;;;;;4965214;28;20054;-78
2023/03/14 02:34:53;;;;;;;5.72;3.88;;;;;;;;;;4984272;28;20042;-77
2023/03/14 02:37:21;;;;;;;6.43;3.55;;;;;;;;;;4984942;28;20057;-79
2023/03/14 02:39:49;;;;;;;4.18;3.17;;;;;;;;;;4968752;28;20070;-78
2023/03/14 02:42:17;;;;;;;3.95;3.47;;;;;;;;;;4968660;28;20415;-78
2023/03/14 02:44:50;;;;;;;7.75;4.13;;;;;;;;;;4968282;28;20054;-78
2023/03/14 02:47:21;;;;;;;5.30;3.63;;;;;;;;;;4965399;28;20096;-77
2023/03/14 02:49:48;;;;;;;6.88;3.50;;;;;;;;;;4969096;28;20049;-78
2023/03/14 02:52:16;;;;;;;3.78;3.05;;;;;;;;;;4984625;28;20089;-79
2023/03/14 02:54:43;;;;;;;5.40;3.55;;;;;;;;;;4966761;28;20054;-77
2023/03/14 02:57:10;;;;;;;5.25;3.72;;;;;;;;;;4984960;28;20052;-77
2023/03/14 02:59:38;;;;;;;4.40;3.33;;;;;;;;;;4967784;28;20042;-77
2023/03/14 03:02:12;;;;;;;4.07;3.45;;;;;;;;;;4966427;28;20088;-77
2023/03/14 03:04:40;;;;;;;4.95;3.50;;;;;;;;;;4966090;28;20050;-77
2023/03/14 03:07:07;;;;;;;4.07;3.67;;;;;;;;;;4964744;28;20130;-77
2023/03/14 03:09:34;;;;;;;4.55;3.70;;;;;;;;;;4967663;28;20042;-77
2023/03/14 03:12:02;;;;;;;7.38;3.92;;;;;;;;;;4984191;28;20058;-78
2023/03/14 03:14:30;;;;;;;3.90;3.60;;;;;;;;;;4984855;28;20052;-77
2023/03/14 03:17:00;;;;;;;5.53;4.10;;;;;;;;;;4967541;28;20046;-77
2023/03/14 03:19:28;;;;;;;5.75;4.07;;;;;;;;;;4966981;28;20043;-76
2023/03/14 03:21:55;;;;;;;6.25;3.63;;;;;;;;;;4981952;28;20473;-76
2023/03/14 03:24:22;;;;;;;4.07;3.53;;;;;;;;;;4984533;28;20046;-78
2023/03/14 03:26:50;;;;;;;4.32;3.75;;;;;;;;;;4965189;28;20504;-77
2023/03/14 03:29:18;;;;;;;4.47;3.50;;;;;;;;;;4969235;28;20460;-77
2023/03/14 03:31:45;;;;;;;5.15;3.85;;;;;;;;;;4986405;28;20496;-77
2023/03/14 03:34:14;;;;;;;4.47;3.33;;;;;;;;;;4966915;28;20113;-77
2023/03/14 03:36:42;;;;;;;5.05;3.63;;;;;;;;;;4966694;28;20544;-77
2023/03/14 03:39:11;;;;;;;5.85;3.42;;;;;;;;;;4981792;28;20046;-78
2023/03/14 03:41:38;;;;;;;4.93;3.92;;;;;;;;;;4964725;28;20058;-77
2023/03/14 03:44:06;;;;;;;5.47;4.10;;;;;;;;;;4963933;28;20124;-77
2023/03/14 03:46:33;;;;;;;5.55;3.78;;;;;;;;;;4967098;28;20050;-77
2023/03/14 03:49:01;;;;;;;7.25;3.80;;;;;;;;;;4966845;28;20066;-76
2023/03/14 03:51:28;;;;;;;4.78;3.75;;;;;;;;;;4974158;28;20061;-77
2023/03/14 03:53:57;;;;;;;4.55;3.92;;;;;;;;;;4966647;28;20468;-78
2023/03/14 03:56:31;;;;;;;7.50;3.95;;;;;;;;;;4967080;28;20416;-77
2023/03/14 03:58:59;;;;;;;5.38;4.60;;;;;;;;;;4983210;28;20054;-77
2023/03/14 04:01:27;;;;;;;5.38;4.32;;;;;;;;;;4969311;28;20042;-78
2023/03/14 04:03:57;;;;;;;5.43;4.13;;;;;;;;;;4987376;28;20054;-78
2023/03/14 04:06:25;;;;;;;5.65;4.13;;;;;;;;;;4985967;28;20138;-78
2023/03/14 04:08:55;;;;;;;6.28;3.72;;;;;;;;;;4970414;28;20049;-79
2023/03/14 04:11:32;;;;;;;7.38;3.92;;;;;;;;;;4970905;28;20050;-78
2023/03/14 04:14:15;;;;;;;6.80;4.13;;;;;;;;;;4970116;28;20047;-77
2023/03/14 04:16:43;;;;;;;6.68;4.28;;;;;;;;;;4974574;28;20082;-79
2023/03/14 04:19:15;;;;;;;5.00;4.47;;;;;;;;;;4994076;28;20057;-78
2023/03/14 04:21:46;;;;;;;5.30;4.15;;;;;;;;;;4988605;28;20527;-79
2023/03/14 04:24:14;;;;;;;5.00;4.45;;;;;;;;;;4988355;28;20133;-79
2023/03/14 04:26:45;;;;;;;6.38;5.10;;;;;;;;;;4971245;28;20049;-79
2023/03/14 04:29:12;;;;;;;8.02;4.38;;;;;;;;;;4970923;28;20076;-80
2023/03/14 04:31:41;;;;;;;7.63;5.10;;;;;;;;;;4973398;28;20043;-79
2023/03/14 04:34:09;;;;;;;9.02;4.90;;;;;;;;;;4968627;28;20074;-79
2023/03/14 04:36:43;;;;;;;9.60;4.82;;;;;;;;;;4969430;28;20419;-79
2023/03/14 04:39:15;;;;;;;7.95;4.80;;;;;;;;;;4968548;28;20752;-78
2023/03/14 04:41:51;;;;;;;7.70;4.75;;;;;;;;;;4969969;28;20034;-79
2023/03/14 04:44:19;;;;;;;12.30;6.80;;;;;;;;;;4963813;28;20053;-79
2023/03/14 04:46:50;;;;;;;7.68;5.97;;;;;;;;;;4970893;28;20140;-79
2023/03/14 04:49:17;;;;;;;8.75;5.80;;;;;;;;;;4982522;23;20117;-83
2023/03/14 04:51:45;;;;;;;8.43;5.93;;;;;;;;;;4965404;28;20141;-85
2023/03/14 04:54:12;;;;;;;9.55;6.35;;;;;;;;;;4990833;28;20508;-85
2023/03/14 04:56:40;;;;;;;7.63;5.63;;;;;;;;;;4971911;28;20061;-83
2023/03/14 04:59:08;;;;;;;8.10;5.88;;;;;;;;;;4988752;28;20505;-84
2023/03/14 05:01:41;;;;;;;8.10;5.60;;;;;;;;;;4993164;28;20073;-85
2023/03/14 05:04:32;;;;;;;7.82;5.65;;;;;;;;;;5005551;28;20101;-85
2023/03/14 05:07:18;;;;;;;6.93;4.88;;;;;;;;;;5010952;28;20030;-86
2023/03/14 05:10:09;;;;;;;7.20;4.75;;;;;;;;;;5001341;28;20041;-86
2023/03/14 05:13:04;;;;;;;8.50;5.00;;;;;;;;;;5001974;28;20572;-85
2023/03/14 05:15:47;;;;;;;7.18;4.60;;;;;;;;;;4976190;28;20047;-85
2023/03/14 05:18:35;;;;;;;8.05;4.85;;;;;;;;;;4938842;28;20048;-85
2023/03/14 05:21:31;;;;;;;9.23;5.50;;;;;;;;;;4957249;28;20053;-84
2023/03/14 05:24:25;;;;;;;7.18;5.03;;;;;;;;;;4988963;28;20061;-84
2023/03/14 05:27:31;;;;;;;8.18;5.35;;;;;;;;;;4977584;28;20124;-85
2023/03/14 05:30:16;;;;;;;7.47;4.80;;;;;;;;;;4988514;28;20330;-84
2023/03/14 05:33:08;;;;;;;7.03;5.18;;;;;;;;;;4990333;28;20053;-83
2023/03/14 05:35:43;;;;;;;10.93;5.45;;;;;;;;;;4973974;28;20050;-84
2023/03/14 05:38:36;;;;;;;9.00;6.20;;;;;;;;;;4979816;28;20038;-85
2023/03/14 05:41:03;;;;;;;8.57;6.03;;;;;;;;;;4991071;28;20073;-84
2023/03/14 05:44:03;;;;;;;10.10;5.82;;;;;;;;;;4966416;28;20123;-84
2023/03/14 05:46:57;;;;;;;14.77;7.05;;;;;;;;;;4975372;28;20042;-86
2023/03/14 05:49:44;;;;;;;9.55;6.90;;;;;;;;;;4978934;28;20038;-84
2023/03/14 05:52:29;;;;;;;10.18;6.97;;;;;;;;;;4985304;28;20077;-85
2023/03/14 05:55:07;;;;;;;11.35;6.60;;;;;;;;;;4973234;28;20077;-84
2023/03/14 05:57:47;;;;;;;7.88;6.03;;;;;;;;;;4965895;28;20096;-87
2023/03/14 06:00:35;;;;;;;9.45;6.72;;;;;;;;;;4968597;28;20117;-84
2023/03/14 06:03:16;;;;;;;7.67;5.97;;;;;;;;;;4969967;28;20052;-84
2023/03/14 06:05:47;;;;;;;10.82;5.63;;;;;;;;;;4971848;28;20309;-87
2023/03/14 06:08:16;;;;;;;7.72;6.07;;;;;;;;;;4970527;28;20076;-86
2023/03/14 06:10:46;;;;;;;6.50;5.82;;;;;;;;;;4967664;28;20042;-82
2023/03/14 06:13:15;;;;;;;8.20;5.90;;;;;;;;;;4968364;28;20061;-86
2023/03/14 06:15:46;;;;;;;7.18;5.85;;;;;;;;;;4970492;28;20520;-89
2023/03/14 06:18:15;;;;;;;6.85;5.82;;;;;;;;;;4989837;28;20054;-84
2023/03/14 06:20:45;;;;;;;11.48;6.28;;;;;;;;;;4973226;28;20048;-86
2023/03/14 06:23:23;;;;;;;10.40;5.93;;;;;;;;;;4973361;28;20133;-87
2023/03/14 06:25:52;;;;;;;10.32;6.05;;;;;;;;;;4991442;28;20073;-85
2023/03/14 06:28:25;;;;;;;12.48;6.80;;;;;;;;;;4987836;28;20423;-87
2023/03/14 06:30:56;;;;;;;13.68;7.65;;;;;;;;;;4990280;28;20141;-84
2023/03/14 06:33:26;;;;;;;13.20;7.43;;;;;;;;;;4983631;28;20061;-84
2023/03/14 06:35:53;;;;;;;14.38;8.30;;;;;;;;;;4956418;28;20397;-84
2023/03/14 06:38:23;;;;;;;14.90;7.70;;;;;;;;;;4967247;28;20049;-84
2023/03/14 06:40:54;;;;;;;15.23;7.17;;;;;;;;;;4969129;28;20469;-84
2023/03/14 06:43:35;;;;;;;11.43;6.63;;;;;;;;;;4969261;28;20795;-84
2023/03/14 06:46:04;;;;;;;12.85;7.15;;;;;;;;;;4969262;28;20050;-85
2023/03/14 06:48:33;;;;;;;14.68;6.93;;;;;;;;;;4967550;28;20052;-84
2023/03/14 06:51:03;;;;;;;8.55;6.20;;;;;;;;;;4968238;28;20098;-86
2023/03/14 06:53:37;;;;;;;11.07;7.18;;;;;;;;;;4968747;28;20505;-86
2023/03/14 06:56:05;;;;;;;10.48;7.25;;;;;;;;;;4969095;28;20054;-85
2023/03/14 06:58:37;;;;;;;11.85;6.45;;;;;;;;;;4967770;28;20106;-85
2023/03/14 07:01:06;;;;;;;12.20;6.53;;;;;;;;;;4968695;28;20049;-84
2023/03/14 07:03:43;;;;;;;14.73;7.43;;;;;;;;;;4965889;28;20054;-85
2023/03/14 07:06:18;;;;;;;47.17;42.83;;;;;;;;;;4967872;28;20114;-86
2023/03/14 07:08:52;;;;;;;8.98;6.60;;;;;;;;;;4973535;28;20158;-87
2023/03/14 07:11:20;;;;;;;8.48;5.90;;;;;;;;;;4967316;28;20050;-86
2023/03/14 07:13:47;;;;;;;9.60;6.38;;;;;;;;;;4983531;28;20430;-83
2023/03/14 07:16:16;;;;;;;8.45;6.10;;;;;;;;;;4967438;28;20571;-85
2023/03/14 07:19:10;;;;;;;8.27;5.70;;;;;;;;;;4986057;28;20049;-85
2023/03/14 07:21:47;;;;;;;8.82;6.18;;;;;;;;;;4971289;28;20046;-85
2023/03/14 07:24:25;;;;;;;10.20;5.30;;;;;;;;;;4970362;28;20057;-85
2023/03/14 07:27:06;;;;;;;8.57;5.35;;;;;;;;;;4980816;28;20061;-85
2023/03/14 07:29:38;;;;;;;9.75;4.90;;;;;;;;;;4986809;28;20130;-85
2023/03/14 07:32:05;;;;;;;6.85;3.35;;;;;;;;;;4963043;28;20050;-85
2023/03/14 07:34:33;;;;;;;10.35;8.00;;;;;;;;;;4967269;28;20053;-85
2023/03/14 07:37:08;;;;;;;4.70;4.20;;;;;;;;;;4968755;28;20058;-85
2023/03/14 07:39:37;;;;;;;7.32;4.20;;;;;;;;;;4970356;28;20073;-86
2023/03/14 07:42:10;;;;;;;5.60;3.55;;;;;;;;;;4972418;28;20035;-86
2023/03/14 07:44:58;;;;;;;7.45;3.70;;;;;;;;;;4986652;28;20046;-86
2023/03/14 07:47:26;;;;;;;4.25;3.60;;;;;;;;;;4975585;28;20050;-86
2023/03/14 07:49:58;;;;;;;5.50;3.15;;;;;;;;;;4991864;28;20022;-87
2023/03/14 07:52:33;;;;;;;6.30;3.50;;;;;;;;;;5006452;28;20034;-87
2023/03/14 07:55:01;;;;;;;4.47;3.55;;;;;;;;;;5003362;28;20031;-87
2023/03/14 07:57:28;;;;;;;4.32;3.38;;;;;;;;;;5009350;28;20152;-85
2023/03/14 07:59:56;;;;;;;3.20;2.88;;;;;;;;;;5001299;28;20050;-85
2023/03/14 08:02:23;;;;;;;3.38;1.77;;;;;;;;;;4986697;28;20055;-85
2023/03/14 08:04:53;;;;;;;4.55;2.08;;;;;;;;;;4984663;28;20038;-85
2023/03/14 08:07:21;;;;;;;4.25;1.98;;;;;;;;;;4989457;28;20085;-85
2023/03/14 08:09:48;;;;;;;1.98;1.45;;;;;;;;;;4964256;28;20345;-86
2023/03/14 08:12:16;;;;;;;1.60;1.50;;;;;;;;;;4984520;28;20046;-86
2023/03/14 08:14:43;;;;;;;2.17;1.55;;;;;;;;;;4984801;28;20042;-85
2023/03/14 08:17:11;;;;;;;4.07;2.40;;;;;;;;;;4985096;28;20069;-86
2023/03/14 08:19:41;;;;;;;1.63;1.25;;;;;;;;;;4986464;28;20066;-84
2023/03/14 08:22:09;;;;;;;3.17;1.52;;;;;;;;;;4981058;28;20311;-85
2023/03/14 08:24:40;;;;;;;2.35;1.10;;;;;;;;;;4988112;28;20050;-85
2023/03/14 08:27:15;;;;;;;2.08;1.40;;;;;;;;;;4986612;28;20050;-85
2023/03/14 08:29:46;;;;;;;1.08;0.90;;;;;;;;;;4984357;28;20094;-86
2023/03/14 08:32:14;;;;;;;2.55;1.20;;;;;;;;;;4983669;28;20050;-85
2023/03/14 08:34:41;;;;;;;1.55;1.45;;;;;;;;;;4984181;28;20424;-85
2023/03/14 08:37:11;;;;;;;1.98;1.08;;;;;;;;;;4984283;28;20078;-85
2023/03/14 08:39:59;;;;;;;1.20;1.00;;;;;;;;;;4967772;28;20049;-85
2023/03/14 08:42:32;;;;;;;2.70;1.58;;;;;;;;;;4982627;28;20073;-89
2023/03/14 08:45:04;;;;;;;1.30;1.20;;;;;;;;;;4967463;28;20089;-86
2023/03/14 08:48:00;;;;;;;1.02;1.02;;;;;;;;;;4987082;28;20046;-85
2023/03/14 08:50:31;;;;;;;2.63;1.05;;;;;;;;;;4982583;28;20046;-84
2023/03/14 08:53:00;;;;;;;1.50;1.40;;;;;;;;;;4983155;28;20042;-85
2023/03/14 08:55:27;;;;;;;5.38;2.03;;;;;;;;;;4985651;28;20423;-85
2023/03/14 08:57:55;;;;;;;1.60;1.40;;;;;;;;;;4982857;28;20555;-84
2023/03/14 09:00:24;;;;;;;1.55;1.45;;;;;;;;;;4982196;28;20042;-85
2023/03/14 09:02:52;;;;;;;3.58;1.15;;;;;;;;;;4984984;28;20070;-85
2023/03/14 09:05:19;;;;;;;1.40;1.30;;;;;;;;;;4987814;28;20055;-86
2023/03/14 09:07:47;;;;;;;3.22;1.60;;;;;;;;;;4986124;28;20051;-84
2023/03/14 09:10:19;;;;;;;2.55;1.30;;;;;;;;;;4993125;28;20055;-86
2023/03/14 09:12:52;;;;;;;4.78;1.60;;;;;;;;;;4990839;28;20358;-89
2023/03/14 09:15:19;;;;;;;2.33;1.63;;;;;;;;;;5008958;28;20034;-86
2023/03/14 09:17:49;;;;;;;1.40;1.27;;;;;;;;;;5003881;28;20039;-85
2023/03/14 09:20:19;;;;;;;4.50;1.20;;;;;;;;;;4990498;28;20051;-84
2023/03/14 09:22:47;;;;;;;2.17;1.45;;;;;;;;;;4985606;28;20049;-85
2023/03/14 09:25:17;;;;;;;1.75;1.50;;;;;;;;;;4983287;28;20777;-85
2023/03/14 09:27:45;;;;;;;1.88;1.13;;;;;;;;;;4984657;28;20080;-85
2023/03/14 09:30:12;;;;;;;1.58;1.48;;;;;;;;;;4967922;28;20054;-84
2023/03/14 09:32:43;;;;;;;3.65;1.20;;;;;;;;;;4965771;28;20042;-85
2023/03/14 09:35:12;;;;;;;2.03;1.13;;;;;;;;;;4982638;28;20039;-82
2023/03/14 09:37:42;;;;;;;2.80;1.17;;;;;;;;;;4981604;28;20390;-84
2023/03/14 09:40:15;;;;;;;1.42;1.08;;;;;;;;;;4972673;28;20046;-85
2023/03/14 09:42:48;;;;;;;3.47;1.13;;;;;;;;;;4982715;28;20050;-85
2023/03/14 09:45:21;;;;;;;1.50;1.13;;;;;;;;;;4989681;28;20868;-83
2023/03/14 09:47:50;;;;;;;2.33;1.38;;;;;;;;;;4987173;28;20531;-86
2023/03/14 09:50:27;;;;;;;2.15;1.77;;;;;;;;;;4979878;28;20097;-85
2023/03/14 09:53:02;;;;;;;1.85;1.30;;;;;;;;;;4972252;28;20047;-84
2023/03/14 09:55:29;;;;;;;1.30;1.20;;;;;;;;;;4979454;28;20035;-84
2023/03/14 09:58:00;;;;;;;3.72;1.40;;;;;;;;;;4971921;28;20121;-84
2023/03/14 10:00:29;;;;;;;1.40;1.30;;;;;;;;;;4971871;28;20042;-85
2023/03/14 10:03:15;;;;;;;1.30;1.20;;;;;;;;;;4971993;28;20074;-85
2023/03/14 10:05:42;;;;;;;1.25;1.15;;;;;;;;;;4973093;28;20066;-85
2023/03/14 10:08:11;;;;;;;1.65;1.50;;;;;;;;;;4991157;28;20046;-86
2023/03/14 10:10:41;;;;;;;1.60;1.50;;;;;;;;;;4990794;28;20436;-85
2023/03/14 10:13:15;;;;;;;2.38;1.55;;;;;;;;;;4990804;28;20054;-85
2023/03/14 10:15:42;;;;;;;2.35;1.40;;;;;;;;;;4991176;28;20081;-84
2023/03/14 10:18:14;;;;;;;1.45;1.35;;;;;;;;;;4973717;28;20046;-85
2023/03/14 10:20:49;;;;;;;1.52;1.42;;;;;;;;;;4990563;28;20053;-86
2023/03/14 10:23:16;;;;;;;4.95;1.60;;;;;;;;;;4977440;28;20050;-87
2023/03/14 10:25:45;;;;;;;1.40;1.30;;;;;;;;;;4954951;28;20051;-86
2023/03/14 10:28:26;;;;;;;1.42;1.33;;;;;;;;;;4971834;28;20129;-85
2023/03/14 10:30:54;;;;;;;1.90;1.10;;;;;;;;;;4972686;28;20055;-84
2023/03/14 10:33:24;;;;;;;1.70;1.20;;;;;;;;;;4978940;28;20051;-85
2023/03/14 10:35:59;;;;;;;1.30;1.20;;;;;;;;;;4986642;28;20050;-87
2023/03/14 10:38:31;;;;;;;1.17;1.10;;;;;;;;;;4986239;28;20054;-86
2023/03/14 10:40:59;;;;;;;1.48;1.20;;;;;;;;;;4986430;28;20023;-85
2023/03/14 10:43:32;;;;;;;1.20;1.10;;;;;;;;;;5004114;28;20069;-85
2023/03/14 10:46:08;;;;;;;1.73;1.15;;;;;;;;;;4992541;28;20064;-86
2023/03/14 10:52:13;;;;;;;1.10;1.10;;;;;;;;;;4965576;28;20050;-79
2023/03/14 10:54:41;;;;;;;1.50;1.40;;;;;;;;;;4966141;28;20448;-78
2023/03/14 10:57:08;;;;;;;1.52;1.42;;;;;;;;;;4967281;28;20688;-78
2023/03/14 10:59:37;;;;;;;2.75;1.40;;;;;;;;;;4967093;28;20082;-78
2023/03/14 11:02:21;;;;;;;1.60;1.50;;;;;;;;;;4950289;28;20066;-82
2023/03/14 11:05:04;;;;;;;1.73;1.60;;;;;;;;;;4967719;28;20387;-79
2023/03/14 11:07:42;;;;;;;1.50;1.40;;;;;;;;;;4967347;28;20051;-79
2023/03/14 11:10:18;;;;;;;1.50;1.40;;;;;;;;;;4969855;28;20509;-79
2023/03/14 11:12:46;;;;;;;2.15;1.20;;;;;;;;;;4971910;28;20050;-79
2023/03/14 11:15:26;;;;;;;1.45;1.17;;;;;;;;;;4971389;28;20055;-79
2023/03/14 11:18:09;;;;;;;1.50;1.40;;;;;;;;;;4971353;28;20492;-79
2023/03/14 11:20:42;;;;;;;1.13;1.02;;;;;;;;;;4969120;28;20410;-79
2023/03/14 11:23:21;;;;;;;1.20;1.10;;;;;;;;;;4970162;28;20046;-80
2023/03/14 11:26:07;;;;;;;3.33;1.40;;;;;;;;;;4970678;28;20528;-79
2023/03/14 11:28:37;;;;;;;2.60;0.95;;;;;;;;;;4970658;28;20046;-80
2023/03/14 11:31:14;;;;;;;1.73;1.30;;;;;;;;;;4970069;28;20587;-79
2023/03/14 11:33:51;;;;;;;1.20;1.10;;;;;;;;;;4970617;28;20054;-80
2023/03/14 11:36:22;;;;;;;1.38;1.25;;;;;;;;;;4970211;28;20042;-79
2023/03/14 11:38:52;;;;;;;2.45;0.88;;;;;;;;;;4982624;28;20047;-79
2023/03/14 11:41:20;;;;;;;1.73;1.10;;;;;;;;;;4970474;28;20078;-78
2023/03/14 11:43:48;;;;;;;1.00;1.00;;;;;;;;;;4970125;28;20166;-79
2023/03/14 11:46:22;;;;;;;0.98;0.98;;;;;;;;;;4970198;28;20057;-79
2023/03/14 11:49:05;;;;;;;1.30;0.90;;;;;;;;;;4970438;28;20058;-78
2023/03/14 11:51:34;;;;;;;0.90;0.90;;;;;;;;;;4969839;28;20081;-79
2023/03/14 11:54:02;;;;;;;2.05;0.88;;;;;;;;;;4969621;28;20523;-78
2023/03/14 11:56:33;;;;;;;1.27;1.00;;;;;;;;;;4970110;28;20045;-79
2023/03/14 11:59:14;;;;;;;4.05;1.10;;;;;;;;;;4970279;28;20050;-78
2023/03/14 12:01:57;;;;;;;0.90;0.90;;;;;;;;;;4969966;28;20058;-79
2023/03/14 12:04:36;;;;;;;1.58;1.10;;;;;;;;;;4970856;28;20530;-79
2023/03/14 12:07:10;;;;;;;1.00;0.80;;;;;;;;;;4970468;28;20117;-79
2023/03/14 12:09:37;;;;;;;1.00;0.75;;;;;;;;;;4969863;28;20525;-78
2023/03/14 12:12:05;;;;;;;3.55;0.93;;;;;;;;;;4969173;28;20513;-78
2023/03/14 12:14:34;;;;;;;0.50;0.50;;;;;;;;;;4969528;28;20066;-79
2023/03/14 12:17:14;;;;;;;0.77;0.77;;;;;;;;;;4970192;28;20050;-78
2023/03/14 12:19:41;;;;;;;1.88;0.60;;;;;;;;;;4968419;28;20047;-78
2023/03/14 12:22:16;;;;;;;2.30;0.65;;;;;;;;;;4969182;28;20134;-79
2023/03/14 12:24:52;;;;;;;1.25;0.60;;;;;;;;;;4969221;28;20394;-77
2023/03/14 12:27:38;;;;;;;2.65;0.50;;;;;;;;;;4969356;28;20057;-78
2023/03/14 12:30:11;;;;;;;0.52;0.52;;;;;;;;;;4969850;28;20055;-77
2023/03/14 12:32:38;;;;;;;0.65;0.43;;;;;;;;;;4969374;28;20046;-78
2023/03/14 12:35:28;;;;;;;0.68;0.50;;;;;;;;;;4969426;28;20078;-78
2023/03/14 12:37:57;;;;;;;2.60;0.60;;;;;;;;;;4963854;28;20053;-78
2023/03/14 12:40:30;;;;;;;0.52;0.50;;;;;;;;;;4952178;28;20043;-78
2023/03/14 12:42:58;;;;;;;2.70;0.52;;;;;;;;;;4952052;28;20113;-78
2023/03/14 12:45:27;;;;;;;0.50;0.50;;;;;;;;;;4969753;28;20062;-78
2023/03/14 12:48:08;;;;;;;0.75;0.50;;;;;;;;;;4969304;28;20078;-78
2023/03/14 12:50:46;;;;;;;0.82;0.60;;;;;;;;;;4968698;28;20055;-79
2023/03/14 12:53:33;;;;;;;2.05;0.60;;;;;;;;;;4965930;28;20137;-79
2023/03/14 12:56:03;;;;;;;0.70;0.70;;;;;;;;;;4967463;28;20042;-78
2023/03/14 12:58:30;;;;;;;1.30;0.50;;;;;;;;;;4969012;28;20057;-78
2023/03/14 13:01:00;;;;;;;0.47;0.47;;;;;;;;;;4966839;28;20198;-77
2023/03/14 13:03:38;;;;;;;5.80;1.20;;;;;;;;;;4966777;28;20051;-78
2023/03/14 13:06:06;;;;;;;0.68;0.68;;;;;;;;;;4966492;28;20062;-78
2023/03/14 13:08:41;;;;;;;0.80;0.73;;;;;;;;;;4964213;28;20051;-78
2023/03/14 13:11:19;;;;;;;1.55;0.65;;;;;;;;;;4961717;28;20109;-78
2023/03/14 13:13:48;;;;;;;1.20;0.60;;;;;;;;;;4966559;28;20469;-78
2023/03/14 13:16:20;;;;;;;2.08;0.75;;;;;;;;;;4953230;28;20054;-78
2023/03/14 13:18:59;;;;;;;1.05;0.70;;;;;;;;;;4964179;28;20047;-79
2023/03/14 13:21:27;;;;;;;0.95;0.65;;;;;;;;;;4966592;28;20082;-78
2023/03/14 13:23:54;;;;;;;1.75;1.10;;;;;;;;;;4964848;28;20133;-77
2023/03/14 13:26:22;;;;;;;0.85;0.50;;;;;;;;;;4964557;28;20655;-78
2023/03/14 13:28:50;;;;;;;0.40;0.40;;;;;;;;;;4965076;28;20043;-78
2023/03/14 13:31:22;;;;;;;0.90;0.60;;;;;;;;;;4964951;28;20054;-78
2023/03/14 13:34:00;;;;;;;1.15;0.63;;;;;;;;;;4954778;28;20094;-79
2023/03/14 13:36:28;;;;;;;0.30;0.30;;;;;;;;;;4959989;28;20047;-78
2023/03/14 13:38:56;;;;;;;3.35;0.63;;;;;;;;;;4961393;28;20067;-78
2023/03/14 13:41:24;;;;;;;0.95;0.50;;;;;;;;;;4954309;28;20047;-77
2023/03/14 13:43:51;;;;;;;0.93;0.52;;;;;;;;;;4953635;28;20054;-78
2023/03/14 13:46:23;;;;;;;15.23;12.23;;;;;;;;;;4963725;28;20051;-78
2023/03/14 13:48:53;;;;;;;4.55;1.38;;;;;;;;;;4955155;28;20475;-79
2023/03/14 13:51:21;;;;;;;2.92;0.68;;;;;;;;;;4959735;28;20056;-78
2023/03/14 13:53:50;;;;;;;0.50;0.50;;;;;;;;;;4959630;28;20046;-78
2023/03/14 13:56:35;;;;;;;0.32;0.32;;;;;;;;;;4959249;28;20134;-78
2023/03/14 13:59:03;;;;;;;0.40;0.40;;;;;;;;;;4964757;28;20104;-78
2023/03/14 14:01:35;;;;;;;1.98;0.40;;;;;;;;;;4952229;28;20054;-78
2023/03/14 14:04:08;;;;;;;0.50;0.50;;;;;;;;;;4959386;28;20051;-78
2023/03/14 14:06:35;;;;;;;2.38;0.40;;;;;;;;;;4948682;28;20070;-80
2023/03/14 14:09:10;;;;;;;5.65;0.70;;;;;;;;;;4957920;28;20151;-78
2023/03/14 14:11:37;;;;;;;0.40;0.40;;;;;;;;;;4962330;28;20138;-77
2023/03/14 14:14:21;;;;;;;1.30;0.70;;;;;;;;;;4962437;28;20054;-78
2023/03/14 14:16:50;;;;;;;2.72;0.40;;;;;;;;;;4963586;28;20124;-79
2023/03/14 14:19:21;;;;;;;0.90;0.50;;;;;;;;;;4957234;28;20050;-77
2023/03/14 14:21:48;;;;;;;0.95;0.40;;;;;;;;;;4956378;28;20050;-78
2023/03/14 14:24:16;;;;;;;0.40;0.40;;;;;;;;;;4957402;28;20065;-78
2023/03/14 14:26:53;;;;;;;0.68;0.68;;;;;;;;;;4966814;28;20409;-78
2023/03/14 14:29:28;;;;;;;1.55;0.90;;;;;;;;;;4957316;28;20050;-77
2023/03/14 14:32:01;;;;;;;1.52;0.63;;;;;;;;;;4939161;28;20054;-78
2023/03/14 14:34:28;;;;;;;1.38;1.05;;;;;;;;;;4951050;28;20050;-77
2023/03/14 14:36:56;;;;;;;0.45;0.43;;;;;;;;;;4955053;28;20556;-78
2023/03/14 14:39:28;;;;;;;0.60;0.50;;;;;;;;;;4973592;28;20046;-78
2023/03/14 14:41:56;;;;;;;0.70;0.70;;;;;;;;;;4967046;28;20420;-78
2023/03/14 14:44:29;;;;;;;0.70;0.60;;;;;;;;;;4950009;28;20047;-78
2023/03/14 14:46:58;;;;;;;0.80;0.50;;;;;;;;;;4969630;28;20039;-78
2023/03/14 14:49:33;;;;;;;0.40;0.40;;;;;;;;;;4956514;28;20051;-77
2023/03/14 14:52:04;;;;;;;2.70;0.60;;;;;;;;;;4958880;28;20047;-78
2023/03/14 14:54:38;;;;;;;0.63;0.45;;;;;;;;;;4951211;28;20576;-78
2023/03/14 14:57:06;;;;;;;0.47;0.47;;;;;;;;;;4950451;28;20049;-78
2023/03/14 14:59:42;;;;;;;1.75;1.15;;;;;;;;;;4959006;28;20054;-78
2023/03/14 15:02:17;;;;;;;2.45;0.70;;;;;;;;;;4958414;28;20058;-77
2023/03/14 15:04:45;;;;;;;0.60;0.60;;;;;;;;;;4953379;28;20413;-77
2023/03/14 15:07:12;;;;;;;0.50;0.50;;;;;;;;;;4945623;28;20081;-77
2023/03/14 15:09:42;;;;;;;0.50;0.50;;;;;;;;;;4953688;28;20055;-78
2023/03/14 15:12:09;;;;;;;0.60;0.60;;;;;;;;;;4957889;28;20051;-79
2023/03/14 15:14:37;;;;;;;0.45;0.40;;;;;;;;;;4966274;28;20488;-78